createdAt,value
2018-09-15T00:08:25.891Z,58.6
2018-09-15T00:18:25.127Z,58.5
2018-09-15T00:28:24.353Z,58.5
2018-09-15T00:38:23.584Z,58.4
2018-09-15T00:48:22.814Z,57.6
2018-09-15T00:58:22.052Z,57.6
2018-09-15T01:08:21.275Z,56.9
2018-09-15T01:18:20.509Z,56.9
2018-09-15T01:28:19.742Z,56.8
2018-09-15T01:38:18.971Z,56.8
2018-09-15T01:48:18.202Z,56.6
2018-09-15T01:58:17.435Z,56.6
2018-09-15T02:08:16.663Z,56.4
2018-09-15T02:18:15.900Z,56.4
2018-09-15T02:28:15.124Z,56.3
2018-09-15T02:38:14.352Z,56.2
2018-09-15T02:48:13.581Z,56.1
2018-09-15T02:58:12.816Z,56
2018-09-15T03:08:12.042Z,55.9
2018-09-15T03:18:11.271Z,55.9
2018-09-15T03:28:10.497Z,55.8
2018-09-15T03:38:09.724Z,55.8
2018-09-15T03:48:08.953Z,55.7
2018-09-15T03:58:08.181Z,55.6
2018-09-15T04:08:07.407Z,55.5
2018-09-15T04:18:06.635Z,55.4
2018-09-15T04:28:05.867Z,55
2018-09-15T04:38:05.093Z,53.1
2018-09-15T04:48:04.319Z,47.6
2018-09-15T04:58:03.544Z,47.2
2018-09-15T05:08:02.775Z,46.7
2018-09-15T05:18:02.002Z,42.2
2018-09-15T05:28:01.232Z,42.3
2018-09-15T05:38:00.461Z,42.2
2018-09-15T05:47:59.693Z,42.4
2018-09-15T05:57:58.924Z,41.9
2018-09-15T06:07:58.154Z,42.6
2018-09-15T06:17:57.382Z,41.8
2018-09-15T06:27:56.611Z,42
2018-09-15T06:37:55.844Z,42.4
2018-09-15T06:47:55.078Z,43.4
2018-09-15T06:57:54.328Z,44
2018-09-15T07:07:53.536Z,45.1
2018-09-15T07:17:52.768Z,46.4
2018-09-15T07:27:51.998Z,47.7
2018-09-15T07:37:51.228Z,48.6
2018-09-15T07:47:50.460Z,49.7
2018-09-15T07:57:49.834Z,50.8
2018-09-15T08:07:48.926Z,51.8
2018-09-15T08:17:48.154Z,52.3
2018-09-15T08:27:47.394Z,52.6
2018-09-15T08:37:46.636Z,52.6
2018-09-15T08:47:45.854Z,53.3
2018-09-15T08:57:45.088Z,53.7
2018-09-15T09:07:44.323Z,54.2
2018-09-15T09:17:43.555Z,54.6
2018-09-15T09:27:42.790Z,54.4
2018-09-15T09:37:42.025Z,54.8
2018-09-15T09:47:41.290Z,55.3
2018-09-15T09:57:40.482Z,55.5
2018-09-15T10:07:39.717Z,55.9
2018-09-15T10:17:38.954Z,56.3
2018-09-15T10:27:38.184Z,56.7
2018-09-15T10:37:37.417Z,57.2
2018-09-15T10:47:36.655Z,57.6
2018-09-15T10:57:35.886Z,58.3
2018-09-15T11:07:35.117Z,58.6
2018-09-15T11:17:34.352Z,58.8
2018-09-15T11:27:33.580Z,59.1
2018-09-15T11:37:32.866Z,59.6
2018-09-15T11:47:32.050Z,60.3
2018-09-15T11:57:31.289Z,60.9
2018-09-15T12:07:30.562Z,61.3
2018-09-15T12:17:29.750Z,61.7
2018-09-15T12:27:28.972Z,62
2018-09-15T12:37:28.206Z,62.5
2018-09-15T12:47:27.441Z,62.8
2018-09-15T12:57:26.671Z,63.2
2018-09-15T13:07:25.898Z,63.5
2018-09-15T13:17:25.135Z,63.8
2018-09-15T13:27:24.361Z,64
2018-09-15T13:37:23.594Z,64.1
2018-09-15T13:47:22.823Z,64.3
2018-09-15T13:57:22.059Z,63.9
2018-09-15T14:07:21.288Z,63.6
2018-09-15T14:17:20.525Z,63.4
2018-09-15T14:27:19.758Z,62.9
2018-09-15T14:37:18.993Z,62.4
2018-09-15T14:47:18.224Z,61.9
2018-09-15T14:57:17.453Z,60.6
2018-09-15T15:07:16.688Z,59.8
2018-09-15T15:17:15.919Z,59.4
2018-09-15T15:27:15.204Z,58.3
2018-09-15T15:37:14.390Z,57.8
2018-09-15T15:47:13.626Z,52.9
2018-09-15T15:57:12.915Z,51.8
2018-09-15T16:07:12.089Z,49.9
2018-09-15T16:17:11.383Z,44.4
2018-09-15T16:27:10.560Z,40.4
2018-09-15T16:37:09.796Z,38.9
2018-09-15T16:47:09.086Z,38.7
2018-09-15T16:57:08.369Z,35.1
2018-09-15T17:07:07.509Z,34.9
2018-09-15T17:17:06.749Z,35.2
2018-09-15T17:27:05.979Z,35.1
2018-09-15T17:37:05.250Z,34.5
2018-09-15T17:47:04.452Z,34.9
2018-09-15T17:57:03.688Z,35.1
2018-09-15T18:07:02.922Z,34.7
2018-09-15T18:17:02.163Z,34.9
2018-09-15T18:27:01.394Z,34.7
2018-09-15T18:37:00.923Z,34.3
2018-09-15T18:46:59.870Z,34.1
2018-09-15T18:56:59.101Z,34.1
2018-09-15T19:06:58.340Z,34.3
2018-09-15T19:16:57.572Z,34.4
2018-09-15T19:26:56.837Z,34.2
2018-09-15T19:36:56.041Z,33.9
2018-09-15T19:46:55.283Z,34.1
2018-09-15T19:56:54.509Z,34.3
2018-09-15T20:06:53.745Z,34.4
2018-09-15T20:16:52.980Z,34.6
2018-09-15T20:26:52.214Z,34.7
2018-09-15T20:36:51.447Z,34.8
2018-09-15T20:46:50.682Z,34.9
2018-09-15T20:56:49.915Z,35
2018-09-15T21:06:49.148Z,35.1
2018-09-15T21:16:48.385Z,35.2
2018-09-15T21:26:47.621Z,35.3
2018-09-15T21:36:46.848Z,35.3
2018-09-15T21:46:46.085Z,35.4
2018-09-15T21:56:45.318Z,35.4
2018-09-15T22:06:44.567Z,35.5
2018-09-15T22:16:43.806Z,35.6
2018-09-15T22:26:43.021Z,35.6
2018-09-15T22:36:42.265Z,35.7
2018-09-15T22:46:41.500Z,35.8
2018-09-15T22:56:40.737Z,35.9
2018-09-15T23:06:39.948Z,35.9
2018-09-15T23:16:39.186Z,35.9
2018-09-15T23:26:38.423Z,36
2018-09-15T23:36:37.650Z,36.1
2018-09-15T23:46:36.883Z,36.1
2018-09-15T23:56:36.118Z,36.2
